Time;durP1;ratioP1;P1;durP2;ratioP2;P2;SDS_P1;SDS_P2;PMS_P1;PMS_P2;Temp;Humidity;BMP_temperature;BMP_pressure;BME280_temperature;BME280_humidity;BME280_pressure;Samples;Min_cycle;Max_cycle;Signal;HPM_P1;HPM_P2
2022/08/05 00:00:21;;;;;;;5.30;4.67;;;;;;;21.63;56.29;97120.19;6174633;22;20191;-74
2022/08/05 00:02:48;;;;;;;5.63;5.03;;;;;;;21.53;56.36;97114.91;6173816;22;20513;-76
2022/08/05 00:05:21;;;;;;;7.07;5.50;;;;;;;21.54;56.36;97120.97;6174048;22;20635;-72
2022/08/05 00:08:09;;;;;;;6.50;4.70;;;;;;;21.77;55.73;97119.78;6277859;22;20212;-75
2022/08/05 00:11:00;;;;;;;7.60;5.50;;;;;;;22.02;55.06;97114.00;6259388;22;20195;-73
2022/08/05 00:13:31;;;;;;;7.00;5.23;;;;;;;22.23;54.51;97114.72;6174488;22;20168;-75
2022/08/05 00:16:10;;;;;;;6.33;5.73;;;;;;;22.47;53.73;97111.63;6173752;22;20350;-75
2022/08/05 00:18:47;;;;;;;5.87;5.27;;;;;;;22.48;53.05;97111.47;6277165;22;20184;-74
2022/08/05 00:21:16;;;;;;;7.30;5.33;;;;;;;22.67;52.93;97114.09;6174515;22;20187;-73
2022/08/05 00:23:45;;;;;;;7.40;5.53;;;;;;;22.78;52.29;97120.19;6173985;22;20170;-76
2022/08/05 00:26:30;;;;;;;5.77;4.80;;;;;;;22.86;52.31;97115.88;6174423;22;20215;-74
2022/08/05 00:28:58;;;;;;;6.77;4.77;;;;;;;22.78;52.17;97112.28;6173949;22;20685;-75
2022/08/05 00:31:25;;;;;;;7.20;5.20;;;;;;;22.60;52.71;97117.47;6277279;22;20174;-75
2022/08/05 00:34:12;;;;;;;5.57;5.07;;;;;;;22.45;52.92;97117.03;6173943;22;20700;-73
2022/08/05 00:36:59;;;;;;;6.77;6.03;;;;;;;22.24;53.45;97113.72;6174174;22;20169;-75
2022/08/05 00:39:46;;;;;;;6.80;5.53;;;;;;;21.92;54.21;97113.19;6174380;22;20200;-74
2022/08/05 00:42:33;;;;;;;6.07;5.47;;;;;;;21.85;54.53;97114.69;6173999;22;20849;-75
2022/08/05 00:45:00;;;;;;;6.40;5.80;;;;;;;21.82;54.69;97118.44;6173968;22;20226;-75
2022/08/05 00:47:30;;;;;;;5.83;5.30;;;;;;;21.80;54.92;97116.88;6173937;22;20202;-75
2022/08/05 00:50:17;;;;;;;6.67;5.53;;;;;;;21.67;55.59;97113.66;6173882;22;20163;-75
2022/08/05 00:52:46;;;;;;;6.33;5.43;;;;;;;21.44;56.22;97104.31;6174741;22;20624;-75
2022/08/05 00:55:14;;;;;;;7.03;5.63;;;;;;;21.17;56.84;97096.19;6176118;22;20269;-75
2022/08/05 00:57:41;;;;;;;7.40;5.90;;;;;;;21.00;57.31;97092.34;6176981;22;20660;-75
2022/08/05 01:00:28;;;;;;;5.53;5.03;;;;;;;20.89;57.77;97095.09;6177930;22;20470;-75
2022/08/05 01:02:57;;;;;;;5.13;4.40;;;;;;;20.79;58.32;97108.19;6177728;22;20201;-75
2022/08/05 01:05:26;;;;;;;4.90;4.50;;;;;;;20.70;58.61;97105.53;6177560;22;20194;-75
2022/08/05 01:07:54;;;;;;;5.17;4.60;;;;;;;20.69;58.59;97099.44;6176638;22;20199;-75
2022/08/05 01:10:54;;;;;;;4.67;4.03;;;;;;;20.69;58.45;97109.16;6262406;22;20598;-75
2022/08/05 01:13:32;;;;;;;5.73;4.10;;;;;;;20.72;58.37;97114.13;6177189;22;20178;-75
2022/08/05 01:16:31;;;;;;;5.13;4.70;;;;;;;20.68;58.71;97108.31;6176581;22;20167;-76
2022/08/05 01:19:11;;;;;;;5.23;4.27;;;;;;;20.67;57.98;97104.00;6177476;22;20563;-75
2022/08/05 01:22:10;;;;;;;7.30;4.37;;;;;;;20.83;57.89;97107.00;6177213;22;20679;-77
2022/08/05 01:25:06;;;;;;;6.37;4.40;;;;;;;20.78;58.20;97106.56;6177082;22;20243;-76
2022/08/05 01:28:10;;;;;;;5.30;4.80;;;;;;;20.57;58.90;97104.88;6177080;22;20195;-77
2022/08/05 01:30:43;;;;;;;9.90;4.60;;;;;;;20.42;59.34;97106.22;6177105;22;20228;-75
2022/08/05 01:33:23;;;;;;;6.27;5.30;;;;;;;20.63;58.76;97102.59;6176957;22;20175;-75
2022/08/05 01:35:55;;;;;;;5.97;4.73;;;;;;;20.57;58.73;97092.56;6176888;22;20186;-74
2022/08/05 01:38:24;;;;;;;6.47;5.07;;;;;;;20.54;59.37;97089.38;6176559;22;20244;-74
2022/08/05 01:41:00;;;;;;;4.93;4.50;;;;;;;20.67;58.62;97093.47;6176627;22;20174;-75
2022/08/05 01:43:30;;;;;;;7.80;5.10;;;;;;;20.67;58.66;97087.38;6176488;22;20526;-75
2022/08/05 01:45:58;;;;;;;9.60;5.23;;;;;;;20.61;58.75;97101.88;6279121;22;20199;-75
2022/08/05 01:48:45;;;;;;;6.30;5.70;;;;;;;20.50;59.34;97098.50;6176975;22;20273;-75
2022/08/05 01:51:17;;;;;;;8.73;5.00;;;;;;;20.56;58.95;97083.03;6176499;22;20706;-74
2022/08/05 01:53:48;;;;;;;6.93;5.40;;;;;;;20.69;59.25;97099.44;6176696;22;20163;-72
2022/08/05 01:56:33;;;;;;;6.60;4.70;;;;;;;20.90;58.45;97087.06;6176437;22;20249;-75
2022/08/05 01:59:22;;;;;;;7.37;5.40;;;;;;;21.14;57.51;97083.31;6176183;22;20200;-73
2022/08/05 02:01:53;;;;;;;6.63;5.00;;;;;;;21.32;57.67;97093.06;6176809;23;20588;-73
2022/08/05 02:04:25;;;;;;;6.17;4.57;;;;;;;21.36;57.16;97088.34;6176185;22;20167;-76
2022/08/05 02:06:52;;;;;;;5.90;5.27;;;;;;;21.47;56.78;97090.88;6174403;22;20167;-75
2022/08/05 02:09:19;;;;;;;5.20;4.73;;;;;;;21.31;57.06;97087.94;6172975;22;20162;-72
2022/08/05 02:11:47;;;;;;;7.30;5.53;;;;;;;21.06;57.88;97087.44;6174706;22;20273;-75
2022/08/05 02:14:29;;;;;;;5.67;4.97;;;;;;;20.79;58.79;97092.41;6174879;22;20168;-72
2022/08/05 02:17:24;;;;;;;5.60;5.10;;;;;;;20.73;58.93;97092.13;6174241;22;20531;-74
2022/08/05 02:20:18;;;;;;;6.17;4.87;;;;;;;20.85;58.89;97083.16;6174452;22;20194;-73
2022/08/05 02:22:55;;;;;;;6.50;5.10;;;;;;;21.01;58.55;97089.63;6174876;22;20171;-74
2022/08/05 02:25:26;;;;;;;6.50;5.40;;;;;;;21.03;58.21;97084.25;6174108;22;20253;-74
2022/08/05 02:28:01;;;;;;;7.33;5.20;;;;;;;21.15;57.80;97070.00;6175510;22;20194;-75
2022/08/05 02:30:42;;;;;;;5.53;4.93;;;;;;;21.38;57.54;97091.69;6149930;22;20166;-76
2022/08/05 02:33:21;;;;;;;5.50;5.00;;;;;;;21.27;57.56;97087.34;6174616;22;20164;-73
2022/08/05 02:36:04;;;;;;;7.03;5.27;;;;;;;20.71;59.28;97094.06;6174722;22;20171;-72
2022/08/05 02:38:32;;;;;;;6.27;5.60;;;;;;;20.47;60.09;97090.84;6174308;22;20170;-72
2022/08/05 02:41:03;;;;;;;6.43;5.23;;;;;;;20.22;60.63;97078.94;6174782;22;20235;-72
2022/08/05 02:43:32;;;;;;;6.40;5.37;;;;;;;20.28;61.02;97083.66;6174603;23;20163;-72
2022/08/05 02:46:21;;;;;;;6.50;5.37;;;;;;;20.64;60.24;97083.22;6175182;22;20164;-74
2022/08/05 02:48:55;;;;;;;7.57;4.97;;;;;;;20.72;60.05;97086.03;6126213;22;20602;-71
2022/08/05 02:51:23;;;;;;;6.63;5.67;;;;;;;20.25;60.94;97083.94;6174916;22;20163;-72
2022/08/05 02:54:12;;;;;;;5.70;5.10;;;;;;;20.16;62.18;97085.50;6175206;22;20163;-72
2022/08/05 02:57:00;;;;;;;6.87;5.37;;;;;;;20.34;61.78;97082.34;6174768;22;20167;-72
2022/08/05 02:59:29;;;;;;;6.10;5.50;;;;;;;20.60;60.78;97079.19;6278291;22;20166;-72
2022/08/05 03:02:16;;;;;;;6.53;5.57;;;;;;;20.86;59.82;97075.13;6262259;22;20173;-72
2022/08/05 03:04:45;;;;;;;6.67;5.97;;;;;;;20.91;59.37;97070.31;6277950;22;20534;-72
2022/08/05 03:07:20;;;;;;;7.27;6.17;;;;;;;20.53;60.88;97079.81;6174625;22;20681;-72
2022/08/05 03:10:08;;;;;;;7.00;6.37;;;;;;;20.05;62.47;97082.13;6174806;22;20213;-75
2022/08/05 03:12:38;;;;;;;7.37;5.80;;;;;;;19.76;63.43;97081.88;6174922;22;20225;-76
2022/08/05 03:15:09;;;;;;;7.13;5.73;;;;;;;19.69;63.90;97080.69;6278110;22;20173;-75
2022/08/05 03:17:38;;;;;;;6.13;5.37;;;;;;;19.69;63.43;97082.50;6277685;22;20186;-76
2022/08/05 03:20:08;;;;;;;5.87;5.37;;;;;;;19.63;63.62;97093.50;6174397;22;20614;-72
2022/08/05 03:22:36;;;;;;;6.67;5.83;;;;;;;19.57;64.06;97081.69;6303850;22;20170;-72
2022/08/05 03:25:12;;;;;;;7.00;5.13;;;;;;;19.55;63.41;97082.78;6174305;22;20169;-75
2022/08/05 03:28:01;;;;;;;6.33;5.50;;;;;;;19.42;64.50;97073.25;6174362;22;20245;-76
2022/08/05 03:30:31;;;;;;;8.17;5.93;;;;;;;19.24;64.66;97073.88;6174151;22;20688;-75
2022/08/05 03:33:04;;;;;;;6.27;5.70;;;;;;;19.44;64.14;97081.84;6174558;22;20176;-73
2022/08/05 03:35:32;;;;;;;6.00;5.40;;;;;;;19.50;63.99;97077.88;6277578;22;20228;-75
2022/08/05 03:38:10;;;;;;;12.73;6.37;;;;;;;19.57;63.83;97075.59;6174721;22;20165;-75
2022/08/05 03:40:41;;;;;;;6.73;6.00;;;;;;;19.80;63.32;97072.78;6174817;22;20633;-76
2022/08/05 03:43:17;;;;;;;6.83;5.87;;;;;;;20.43;61.23;97078.91;6174429;22;20163;-75
2022/08/05 03:46:07;;;;;;;6.13;5.63;;;;;;;20.77;59.70;97059.31;6233296;22;20170;-77
2022/08/05 03:48:36;;;;;;;8.07;6.30;;;;;;;21.26;58.06;97083.06;6253680;22;20289;-80
2022/08/05 03:51:23;;;;;;;10.53;6.60;;;;;;;21.47;57.58;97059.25;6175736;22;20163;-78
2022/08/05 03:54:32;;;;;;;6.77;5.77;;;;;;;21.77;56.59;97080.25;6282241;22;20254;-78
2022/08/05 03:57:24;;;;;;;8.60;6.07;;;;;;;22.11;55.70;97081.53;6252652;22;20182;-78
2022/08/05 04:00:25;;;;;;;6.63;5.77;;;;;;;22.02;55.81;97082.38;6176996;22;20168;-78
2022/08/05 04:03:07;;;;;;;7.10;6.40;;;;;;;22.08;55.74;97091.50;6252201;22;20172;-79
2022/08/05 04:05:54;;;;;;;8.03;6.13;;;;;;;21.78;56.29;97074.00;6175188;22;20180;-77
2022/08/05 04:08:24;;;;;;;10.37;6.47;;;;;;;22.10;55.71;97069.31;6278497;22;20674;-78
2022/08/05 04:11:06;;;;;;;7.53;5.70;;;;;;;22.48;54.97;97077.16;6277471;22;20173;-76
2022/08/05 04:13:39;;;;;;;8.10;6.33;;;;;;;22.65;54.49;97084.38;6274813;22;20170;-74
2022/08/05 04:16:16;;;;;;;8.27;5.43;;;;;;;23.05;53.41;97084.09;6174783;22;20510;-78
2022/08/05 04:18:54;;;;;;;6.73;5.77;;;;;;;22.94;53.59;97083.44;6174919;22;20243;-79
2022/08/05 04:21:26;;;;;;;7.63;5.27;;;;;;;22.24;55.38;97060.94;6174697;22;20192;-77
2022/08/05 04:24:13;;;;;;;7.70;6.07;;;;;;;22.05;55.92;97075.97;6259564;22;20193;-77
2022/08/05 04:26:49;;;;;;;6.23;5.73;;;;;;;22.06;56.47;97077.63;6270939;22;20202;-74
2022/08/05 04:29:27;;;;;;;7.37;5.63;;;;;;;21.99;56.16;97052.81;6175321;22;20522;-77
2022/08/05 04:32:09;;;;;;;7.63;5.90;;;;;;;22.77;54.60;97052.53;6279604;22;20583;-77
2022/08/05 04:35:18;;;;;;;11.47;6.53;;;;;;;22.60;55.15;97085.78;6175257;22;20170;-78
2022/08/05 04:38:03;;;;;;;6.73;4.77;;;;;;;22.10;56.14;97035.00;6264339;22;20248;-77
2022/08/05 04:40:38;;;;;;;8.43;5.83;;;;;;;22.64;55.15;97073.97;6277873;22;20171;-78
2022/08/05 04:43:10;;;;;;;8.87;5.50;;;;;;;23.23;53.60;97070.94;6175199;22;20229;-77
2022/08/05 04:45:51;;;;;;;5.33;4.80;;;;;;;23.56;52.84;97051.84;6177006;22;20249;-76
2022/08/05 04:48:21;;;;;;;14.40;6.07;;;;;;;24.04;51.89;97073.50;6176211;22;20209;-77
2022/08/05 04:50:55;;;;;;;7.60;5.87;;;;;;;24.15;51.44;97069.78;6174624;22;20206;-78
2022/08/05 04:53:35;;;;;;;5.80;5.20;;;;;;;24.00;51.64;97066.00;6173902;22;20172;-77
2022/08/05 04:56:07;;;;;;;7.10;4.83;;;;;;;23.82;51.98;97065.97;6253294;22;20313;-77
2022/08/05 04:58:54;;;;;;;9.40;6.33;;;;;;;24.17;51.20;97073.94;6252180;22;20176;-77
2022/08/05 05:01:22;;;;;;;5.13;4.63;;;;;;;24.25;51.17;97066.06;6174081;22;20166;-76
2022/08/05 05:04:09;;;;;;;7.70;5.10;;;;;;;24.55;51.09;97067.44;6174888;22;20166;-76
2022/08/05 05:06:37;;;;;;;7.40;4.80;;;;;;;24.49;49.75;97072.53;6174411;22;20169;-78
2022/08/05 05:09:14;;;;;;;6.57;5.47;;;;;;;24.62;49.72;97068.50;6175008;22;20229;-76
2022/08/05 05:11:44;;;;;;;9.87;5.30;;;;;;;24.89;50.00;97065.66;6174566;22;20491;-77
2022/08/05 05:14:21;;;;;;;5.37;4.77;;;;;;;25.03;48.50;97056.31;6174517;22;20193;-79
2022/08/05 05:17:01;;;;;;;6.00;5.40;;;;;;;25.07;48.00;97062.13;6278374;22;20173;-77
2022/08/05 05:19:29;;;;;;;5.53;5.03;;;;;;;24.89;48.45;97065.66;6277433;22;20567;-77
2022/08/05 05:22:13;;;;;;;8.33;5.33;;;;;;;24.87;49.09;97064.19;6174713;22;20521;-77
2022/08/05 05:24:50;;;;;;;7.50;5.00;;;;;;;24.85;49.52;97056.38;6254753;22;20172;-75
2022/08/05 05:27:33;;;;;;;7.60;4.90;;;;;;;25.06;48.14;97060.47;6278719;22;20567;-77
2022/08/05 05:30:15;;;;;;;6.47;4.97;;;;;;;24.89;48.46;97044.47;6174294;22;20573;-77
2022/08/05 05:32:58;;;;;;;5.90;5.27;;;;;;;25.12;48.24;97055.38;6251698;22;20260;-77
2022/08/05 05:35:38;;;;;;;8.80;5.93;;;;;;;24.65;49.42;97009.88;6278041;22;20173;-78
2022/08/05 05:38:10;;;;;;;8.60;5.97;;;;;;;25.28;48.82;97054.59;6273951;22;20181;-79
2022/08/05 05:40:41;;;;;;;7.27;5.80;;;;;;;25.35;48.58;97050.31;6275013;22;20636;-76
2022/08/05 05:43:21;;;;;;;5.67;4.80;;;;;;;25.14;48.92;97052.56;6280069;22;20181;-77
2022/08/05 05:46:12;;;;;;;9.33;5.30;;;;;;;25.39;49.05;97047.16;6175657;22;20644;-77
2022/08/05 05:48:45;;;;;;;7.70;5.30;;;;;;;25.55;48.16;97033.16;6175641;22;20281;-77
2022/08/05 05:51:19;;;;;;;8.03;5.80;;;;;;;25.62;48.03;97058.03;6175022;22;20178;-76
2022/08/05 05:53:46;;;;;;;5.70;5.10;;;;;;;25.70;47.86;97055.38;6174749;22;20166;-76
2022/08/05 05:56:27;;;;;;;5.97;5.37;;;;;;;25.75;47.74;97055.75;6148548;23;20555;-78
2022/08/05 05:59:05;;;;;;;8.37;4.80;;;;;;;25.79;47.11;97055.25;6150170;22;20524;-78
2022/08/05 06:01:36;;;;;;;6.10;4.80;;;;;;;25.66;47.01;97036.31;6148948;22;20714;-76
2022/08/05 06:04:11;;;;;;;6.67;4.73;;;;;;;25.99;46.75;97047.00;6174691;22;20618;-77
2022/08/05 06:06:43;;;;;;;5.97;4.70;;;;;;;26.03;46.39;97056.28;6174299;22;20174;-77
2022/08/05 06:09:15;;;;;;;6.40;4.93;;;;;;;26.17;46.35;97053.00;6124005;22;20695;-76
2022/08/05 06:11:52;;;;;;;6.43;4.43;;;;;;;26.44;45.44;97050.00;6270760;22;20235;-73
2022/08/05 06:14:29;;;;;;;7.13;4.17;;;;;;;26.61;45.21;97055.09;6175101;22;20260;-76
2022/08/05 06:16:57;;;;;;;5.40;4.90;;;;;;;26.76;44.96;97046.47;6148193;22;20175;-79
2022/08/05 06:19:25;;;;;;;7.20;4.73;;;;;;;27.16;43.63;97046.34;6174255;22;20174;-76
2022/08/05 06:22:02;;;;;;;6.53;4.47;;;;;;;27.55;42.70;97044.53;6174642;22;20278;-78
2022/08/05 06:24:41;;;;;;;8.43;4.67;;;;;;;27.76;41.63;97046.56;6122690;23;20618;-74
2022/08/05 06:27:14;;;;;;;9.80;4.43;;;;;;;28.09;41.43;97042.66;6123648;22;20232;-74
2022/08/05 06:30:03;;;;;;;4.03;3.40;;;;;;;28.07;41.31;97045.50;6174489;22;20671;-78
2022/08/05 06:32:46;;;;;;;6.43;3.20;;;;;;;28.01;41.34;97061.34;6130167;22;20167;-74
2022/08/05 06:35:13;;;;;;;4.90;3.37;;;;;;;28.08;41.27;97047.19;6123953;22;20193;-80
2022/08/05 06:37:49;;;;;;;5.33;3.67;;;;;;;28.48;40.70;97053.97;6174538;22;20169;-79
2022/08/05 06:40:25;;;;;;;5.37;3.63;;;;;;;28.45;40.71;97049.00;6150929;22;20163;-78
2022/08/05 06:42:58;;;;;;;7.47;3.93;;;;;;;28.62;40.03;97047.91;6125193;23;20250;-77
2022/08/05 06:45:41;;;;;;;5.53;3.63;;;;;;;28.77;39.40;97051.38;6174785;22;20169;-79
2022/08/05 06:48:29;;;;;;;6.07;4.00;;;;;;;29.20;39.90;97056.94;6174650;22;20735;-78
2022/08/05 06:51:17;;;;;;;7.33;3.70;;;;;;;29.30;38.26;97033.47;6174871;22;20622;-78
2022/08/05 06:53:59;;;;;;;5.80;3.93;;;;;;;29.39;38.92;97051.00;6150528;22;20166;-76
2022/08/05 06:56:29;;;;;;;6.60;6.00;;;;;;;29.67;37.93;97046.66;6174391;23;20159;-75
2022/08/05 06:59:03;;;;;;;6.37;3.60;;;;;;;29.77;38.00;97033.84;6147938;23;20728;-78
2022/08/05 07:01:36;;;;;;;7.50;4.33;;;;;;;30.06;37.77;97044.41;6149735;22;20783;-77
2022/08/05 07:04:08;;;;;;;5.47;3.43;;;;;;;29.76;37.40;97056.19;6124227;23;20174;-78
2022/08/05 07:06:35;;;;;;;7.90;3.50;;;;;;;29.80;37.84;97052.13;6174734;23;20163;-73
2022/08/05 07:09:03;;;;;;;4.67;3.10;;;;;;;29.95;36.50;97050.25;6174009;23;20259;-73
2022/08/05 07:11:34;;;;;;;7.87;3.00;;;;;;;29.94;37.11;97055.78;6174268;22;20712;-75
2022/08/05 07:16:59;;;;;;;4.17;3.13;;;;;;;29.91;37.14;97062.34;6123043;23;20599;-73
2022/08/05 07:19:51;;;;;;;6.67;4.00;;;;;;;30.18;36.22;97045.56;6174530;23;20197;-77
2022/08/05 07:22:40;;;;;;;5.40;3.00;;;;;;;30.19;36.24;97044.50;6148085;23;20183;-78
2022/08/05 07:25:12;;;;;;;3.87;3.37;;;;;;;30.54;36.78;97043.59;6174411;23;20159;-76
2022/08/05 07:28:00;;;;;;;8.73;5.20;;;;;;;30.85;35.79;97050.47;6148245;22;20163;-77
2022/08/05 07:30:36;;;;;;;6.93;3.33;;;;;;;30.84;35.36;97048.75;6147312;22;20170;-76
2022/08/05 07:33:11;;;;;;;3.70;3.40;;;;;;;30.81;35.64;97049.16;6173287;23;20239;-75
2022/08/05 07:36:04;;;;;;;3.83;3.20;;;;;;;30.58;35.93;97037.88;6146648;23;20174;-73
2022/08/05 07:38:47;;;;;;;3.13;2.77;;;;;;;30.72;35.40;97042.31;6126174;23;20163;-73
2022/08/05 07:41:23;;;;;;;4.83;3.20;;;;;;;30.53;36.46;97041.97;6174369;23;20241;-75
2022/08/05 07:44:10;;;;;;;4.00;2.97;;;;;;;29.98;36.92;97047.22;6152310;22;20174;-75
2022/08/05 07:46:44;;;;;;;6.90;3.40;;;;;;;29.77;37.25;97038.34;6173932;23;20695;-75
2022/08/05 07:49:16;;;;;;;4.40;3.30;;;;;;;29.55;38.19;97050.81;6173792;23;20202;-77
2022/08/05 07:51:45;;;;;;;6.50;3.13;;;;;;;29.11;38.02;97047.34;6173479;23;20190;-76
2022/08/05 07:54:22;;;;;;;3.60;3.30;;;;;;;28.84;38.34;97044.31;6174088;22;20585;-76
2022/08/05 07:57:03;;;;;;;6.17;3.80;;;;;;;28.74;38.90;97049.09;6173409;22;20170;-78
2022/08/05 07:59:51;;;;;;;4.17;3.20;;;;;;;28.78;39.83;97053.06;6235085;22;20630;-75
2022/08/05 08:02:26;;;;;;;5.33;3.60;;;;;;;28.75;39.58;97058.72;6277104;22;20512;-74
2022/08/05 08:05:14;;;;;;;6.27;3.70;;;;;;;28.90;39.45;97050.75;6255077;22;20186;-76
2022/08/05 08:07:43;;;;;;;4.80;3.80;;;;;;;29.24;37.43;97052.91;6277403;22;20175;-75
2022/08/05 08:10:29;;;;;;;4.57;3.30;;;;;;;29.36;37.66;97051.41;6255289;22;20592;-76
2022/08/05 08:13:00;;;;;;;3.63;3.33;;;;;;;29.51;36.75;97042.34;6174669;22;20162;-77
2022/08/05 08:15:27;;;;;;;3.40;3.10;;;;;;;29.25;37.16;97049.19;6174599;22;20166;-78
2022/08/05 08:18:15;;;;;;;4.20;3.27;;;;;;;29.46;37.38;97049.25;6173542;22;20539;-79
2022/08/05 08:20:48;;;;;;;3.63;3.13;;;;;;;29.55;36.63;97035.59;6276922;22;20199;-76
2022/08/05 08:23:31;;;;;;;4.13;3.73;;;;;;;29.72;36.35;97045.09;6263372;22;20166;-75
2022/08/05 08:26:21;;;;;;;6.10;4.03;;;;;;;30.03;36.03;97036.75;6174007;22;20534;-78
2022/08/05 08:28:58;;;;;;;3.50;3.20;;;;;;;29.95;35.64;97034.22;6174196;22;20304;-76
2022/08/05 08:31:46;;;;;;;3.67;3.10;;;;;;;29.94;36.13;97040.59;6251362;22;20387;-78
2022/08/05 08:34:16;;;;;;;4.20;2.87;;;;;;;30.23;36.46;97023.59;6173857;22;20167;-77
2022/08/05 08:36:45;;;;;;;3.27;2.97;;;;;;;30.00;35.34;97023.81;6174018;22;20166;-77
2022/08/05 08:39:23;;;;;;;6.77;4.50;;;;;;;30.13;35.11;97031.13;6276530;22;20247;-77
2022/08/05 08:41:55;;;;;;;5.63;4.20;;;;;;;30.32;35.52;97027.81;6174868;22;20540;-76
2022/08/05 08:44:32;;;;;;;5.47;4.30;;;;;;;29.95;36.04;97063.59;6173846;22;20227;-78
2022/08/05 08:47:25;;;;;;;4.90;4.30;;;;;;;29.81;36.78;97051.13;6255341;22;20177;-78
2022/08/05 08:50:13;;;;;;;5.17;4.17;;;;;;;30.19;35.78;97023.13;6173912;22;20254;-78
2022/08/05 08:53:04;;;;;;;6.23;3.87;;;;;;;30.43;35.20;97013.91;6259790;22;20167;-75
2022/08/05 08:55:39;;;;;;;3.67;3.37;;;;;;;30.45;35.43;97030.59;6173513;22;20203;-77
2022/08/05 08:58:27;;;;;;;3.53;3.20;;;;;;;30.39;34.94;97023.34;6173748;22;20163;-76
2022/08/05 09:01:10;;;;;;;4.77;4.27;;;;;;;30.55;35.68;97012.34;6173336;22;20692;-76
2022/08/05 09:03:51;;;;;;;5.13;3.50;;;;;;;31.09;34.00;97020.53;6174346;22;20641;-76
2022/08/05 09:06:23;;;;;;;4.50;3.40;;;;;;;30.76;34.37;97008.78;6276546;22;20167;-76
2022/08/05 09:09:00;;;;;;;5.03;3.10;;;;;;;30.58;34.80;97024.50;6276793;22;20679;-75
2022/08/05 09:11:29;;;;;;;3.97;3.27;;;;;;;30.42;34.20;97028.28;6275114;22;20169;-76
2022/08/05 09:14:16;;;;;;;5.03;3.90;;;;;;;30.27;35.45;97008.84;6259164;22;20209;-73
2022/08/05 09:17:09;;;;;;;5.43;3.30;;;;;;;30.53;34.33;97001.88;6175139;22;20483;-74
2022/08/05 09:19:56;;;;;;;3.23;3.03;;;;;;;30.45;34.57;96991.31;6260034;22;20626;-74
2022/08/05 09:23:01;;;;;;;5.90;3.20;;;;;;;30.23;35.85;97013.72;6277246;22;20610;-75
2022/08/05 09:25:33;;;;;;;7.63;3.00;;;;;;;30.38;36.00;96997.63;6272942;22;20167;-75
2022/08/05 09:28:23;;;;;;;5.27;3.00;;;;;;;30.84;34.68;97001.44;6174923;22;20217;-77
2022/08/05 09:31:06;;;;;;;13.20;7.87;;;;;;;30.37;34.06;97004.84;6270241;22;20202;-76
2022/08/05 09:33:57;;;;;;;7.70;5.17;;;;;;;30.16;34.66;96995.97;6278478;22;20237;-76
2022/08/05 09:36:49;;;;;;;5.60;3.73;;;;;;;30.35;34.69;96996.19;6277909;22;20558;-73
2022/08/05 09:39:23;;;;;;;3.97;3.07;;;;;;;30.51;34.58;96974.50;6273683;22;20166;-77
2022/08/05 09:42:22;;;;;;;3.03;2.73;;;;;;;30.79;33.75;96997.72;6253397;22;20183;-73
2022/08/05 09:44:55;;;;;;;2.90;2.70;;;;;;;30.32;34.78;96996.56;6174383;22;20181;-75
2022/08/05 09:47:42;;;;;;;2.73;2.53;;;;;;;30.51;33.21;96995.88;6278354;22;20178;-74
2022/08/05 09:50:36;;;;;;;2.90;2.70;;;;;;;30.13;34.61;96991.84;6229823;22;20562;-74
2022/08/05 09:53:11;;;;;;;4.00;3.40;;;;;;;30.52;34.00;96988.69;6278372;22;20634;-74
2022/08/05 09:55:59;;;;;;;3.10;2.90;;;;;;;30.54;34.23;96986.66;6174639;22;20204;-73
2022/08/05 09:58:38;;;;;;;2.77;2.57;;;;;;;30.87;34.12;96984.22;6266710;22;20240;-77
2022/08/05 10:01:11;;;;;;;5.57;4.40;;;;;;;30.98;33.08;96979.13;6174503;22;20202;-76
2022/08/05 10:03:58;;;;;;;5.53;3.13;;;;;;;31.17;32.75;96975.72;6173975;22;20194;-77
2022/08/05 10:06:27;;;;;;;3.20;2.90;;;;;;;31.35;32.12;96980.50;6173972;22;20243;-75
2022/08/05 10:08:55;;;;;;;4.78;3.08;;;;;;;31.32;31.58;96984.38;6174557;22;20202;-73
2022/08/05 10:11:22;;;;;;;2.73;2.53;;;;;;;31.13;31.21;96976.28;6173734;22;20173;-73
2022/08/05 10:13:57;;;;;;;3.10;2.90;;;;;;;31.31;31.72;96980.06;6271483;22;20578;-72
2022/08/05 10:16:35;;;;;;;3.77;2.93;;;;;;;31.16;32.39;96960.66;6253037;22;20179;-72
2022/08/05 10:19:18;;;;;;;4.67;3.03;;;;;;;31.31;32.53;96973.88;6173895;22;20705;-73
2022/08/05 10:22:07;;;;;;;4.83;2.83;;;;;;;31.27;32.81;96965.44;6278024;22;20645;-75
2022/08/05 10:24:41;;;;;;;4.95;3.17;;;;;;;31.11;33.47;96973.00;6174156;22;20182;-73
2022/08/05 10:27:15;;;;;;;2.83;2.63;;;;;;;30.76;33.82;96982.03;6174682;22;20163;-73
2022/08/05 10:29:42;;;;;;;4.30;3.10;;;;;;;30.82;33.95;96971.38;6174454;22;20190;-74
2022/08/05 10:32:31;;;;;;;6.50;3.10;;;;;;;30.76;32.79;96957.97;6276905;22;20665;-75
2022/08/05 10:35:18;;;;;;;4.88;2.97;;;;;;;31.25;31.90;96954.13;6261062;22;20772;-75
2022/08/05 10:37:47;;;;;;;2.80;2.60;;;;;;;31.27;30.63;96949.38;6252549;22;20615;-77
2022/08/05 10:40:29;;;;;;;4.13;2.70;;;;;;;31.53;30.74;96962.03;6173373;22;20198;-74
2022/08/05 10:43:41;;;;;;;3.30;3.00;;;;;;;31.23;31.64;96968.72;6277254;22;20190;-73
2022/08/05 10:46:10;;;;;;;3.50;2.50;;;;;;;31.36;31.69;96966.09;6173229;22;20166;-75
2022/08/05 10:48:46;;;;;;;3.78;2.72;;;;;;;31.22;30.94;96959.06;6173547;22;20242;-75
2022/08/05 10:51:24;;;;;;;3.13;2.78;;;;;;;31.46;29.81;96957.69;6173629;22;20163;-73
2022/08/05 10:54:01;;;;;;;2.90;2.70;;;;;;;31.43;31.27;96942.84;6276876;22;20173;-75
2022/08/05 10:56:56;;;;;;;4.03;2.53;;;;;;;31.62;30.61;96946.59;6282014;22;20187;-76
2022/08/05 10:59:28;;;;;;;2.95;2.70;;;;;;;31.21;31.13;96944.00;6303422;22;20163;-74
2022/08/05 11:02:16;;;;;;;4.33;2.80;;;;;;;31.12;32.02;96948.72;6330909;22;20163;-75
2022/08/05 11:05:08;;;;;;;4.68;3.10;;;;;;;30.81;33.30;96947.53;6331877;22;20160;-77
2022/08/05 11:07:59;;;;;;;3.30;3.00;;;;;;;31.04;33.08;96935.50;6303150;22;20258;-73
2022/08/05 11:10:36;;;;;;;5.17;2.90;;;;;;;31.07;33.21;96934.28;6331094;22;20720;-74
2022/08/05 11:13:39;;;;;;;3.57;3.13;;;;;;;31.60;31.67;96925.38;6331835;22;20478;-73
2022/08/05 11:16:24;;;;;;;3.57;2.53;;;;;;;31.66;31.01;96931.78;6331035;22;20615;-74
2022/08/05 11:19:25;;;;;;;2.83;2.63;;;;;;;31.49;30.43;96934.00;6331448;22;20217;-74
2022/08/05 11:22:40;;;;;;;3.72;2.92;;;;;;;31.91;30.73;96939.03;6331808;22;20213;-74
2022/08/05 11:25:29;;;;;;;4.28;2.83;;;;;;;31.83;31.52;96928.50;6331287;22;20159;-75
2022/08/05 11:28:16;;;;;;;3.22;3.03;;;;;;;31.81;31.46;96924.38;6303053;22;20232;-77
2022/08/05 11:30:56;;;;;;;3.33;2.92;;;;;;;32.19;30.63;96919.25;6253071;22;20213;-76
2022/08/05 11:33:25;;;;;;;5.10;3.30;;;;;;;32.59;30.29;96913.66;6331033;22;20617;-74
2022/08/05 11:36:15;;;;;;;2.58;2.38;;;;;;;32.42;29.83;96923.13;6277655;22;20179;-74
2022/08/05 11:39:00;;;;;;;2.78;2.58;;;;;;;32.23;29.99;96909.78;6330934;22;20255;-74
2022/08/05 11:41:30;;;;;;;3.00;2.70;;;;;;;32.29;30.22;96911.63;6303173;22;20224;-73
2022/08/05 11:44:19;;;;;;;2.55;2.35;;;;;;;32.37;29.92;96906.88;6331501;22;20159;-74
2022/08/05 11:47:07;;;;;;;3.20;2.95;;;;;;;32.14;30.40;96909.16;6307883;22;20159;-75
2022/08/05 11:49:40;;;;;;;3.42;2.75;;;;;;;32.05;29.12;96916.59;6303301;22;20190;-77
2022/08/05 11:52:09;;;;;;;3.15;2.10;;;;;;;31.63;30.50;96895.53;6331160;22;20163;-74
2022/08/05 11:54:39;;;;;;;2.83;2.63;;;;;;;31.78;30.33;96898.03;6287792;22;20281;-74
2022/08/05 11:57:07;;;;;;;3.00;2.80;;;;;;;31.72;29.84;96918.41;6275159;22;20547;-74
2022/08/05 11:59:53;;;;;;;3.97;2.92;;;;;;;32.02;29.82;96911.66;6276840;22;20179;-75
2022/08/05 12:02:26;;;;;;;4.75;2.55;;;;;;;32.07;29.84;96897.59;6277186;22;20170;-74
2022/08/05 12:05:03;;;;;;;2.80;2.60;;;;;;;31.97;29.98;96902.56;6173456;22;20550;-75
2022/08/05 12:07:37;;;;;;;3.88;2.72;;;;;;;31.97;30.33;96900.72;6272089;22;20209;-74
2022/08/05 12:10:31;;;;;;;3.45;2.58;;;;;;;32.14;30.85;96893.06;6173478;22;20198;-75
2022/08/05 12:13:54;;;;;;;3.72;2.55;;;;;;;32.19;30.06;96890.56;6276296;22;20171;-75
2022/08/05 12:17:14;;;;;;;3.42;2.65;;;;;;;32.11;30.23;96892.69;6272637;22;20190;-74
2022/08/05 12:20:37;;;;;;;4.05;3.08;;;;;;;31.66;31.23;96884.41;6260613;22;20171;-74
2022/08/05 12:23:57;;;;;;;2.97;2.78;;;;;;;31.89;30.84;96890.19;6263255;22;20194;-75
2022/08/05 12:27:18;;;;;;;2.90;2.70;;;;;;;32.36;29.51;96875.72;6260976;22;20163;-74
2022/08/05 12:30:09;;;;;;;3.72;2.63;;;;;;;32.55;30.15;96884.78;6176593;22;20285;-75
2022/08/05 12:32:46;;;;;;;2.88;2.63;;;;;;;32.28;30.44;96877.78;6276161;22;20174;-74
2022/08/05 12:35:17;;;;;;;4.72;2.70;;;;;;;32.55;30.32;96890.97;6250785;22;20182;-75